Time,TemperatureF,DewpointF,PressureIn,WindDirection,WindDirectionDegrees,WindSpeedMPH,WindSpeedGustMPH,Humidity,HourlyPrecipIn,Conditions,Clouds,dailyrainin,SoftwareType,DateUTC
2013-09-23 00:01:00,82.6,76.8,29.86,SW,236,1.0,3.0,83,0.00,,,0.00,meteohub,2013-09-23 04:01:00,
2013-09-23 00:02:00,82.6,76.8,29.86,SW,236,0.0,3.0,83,0.00,,,0.00,meteohub,2013-09-23 04:02:00,
2013-09-23 00:03:00,82.6,76.8,29.86,SW,236,0.0,3.0,83,0.00,,,0.00,meteohub,2013-09-23 04:03:00,
2013-09-23 00:09:00,82.6,76.8,29.86,SW,236,1.0,3.0,83,0.00,,,0.00,meteohub,2013-09-23 04:09:00,
2013-09-23 00:14:00,82.4,76.6,29.86,SW,236,0.0,3.0,83,0.00,,,0.00,meteohub,2013-09-23 04:14:00,
2013-09-23 00:19:00,82.4,76.6,29.86,SW,236,1.0,3.0,83,0.00,,,0.00,meteohub,2013-09-23 04:19:00,
2013-09-23 00:25:00,82.4,76.6,29.86,SW,236,1.0,2.0,83,0.00,,,0.00,meteohub,2013-09-23 04:25:00,
2013-09-23 00:30:00,82.4,76.6,29.86,SW,236,1.0,2.0,83,0.00,,,0.00,meteohub,2013-09-23 04:30:00,
2013-09-23 00:35:00,82.4,77.0,29.86,SW,236,0.0,2.0,84,0.00,,,0.00,meteohub,2013-09-23 04:35:00,
2013-09-23 00:40:00,82.2,76.5,29.86,SW,236,0.0,2.0,83,0.00,,,0.00,meteohub,2013-09-23 04:40:00,
2013-09-23 00:45:00,82.2,76.5,29.86,SW,236,0.0,2.0,83,0.00,,,0.00,meteohub,2013-09-23 04:45:00,
2013-09-23 00:50:00,82.2,76.8,29.86,SW,236,0.0,4.0,84,0.00,,,0.00,meteohub,2013-09-23 04:50:00,
2013-09-23 00:55:00,82.2,76.8,29.85,SW,236,0.0,4.0,84,0.00,,,0.00,meteohub,2013-09-23 04:55:00,
2013-09-23 01:00:00,82.2,76.8,29.85,SW,236,1.0,3.0,84,0.00,,,0.00,meteohub,2013-09-23 05:00:00,
2013-09-23 01:06:00,82.2,76.8,29.85,SW,236,1.0,3.0,84,0.00,,,0.00,meteohub,2013-09-23 05:06:00,
2013-09-23 01:11:00,82.2,76.8,29.85,SW,236,0.0,5.0,84,0.00,,,0.00,meteohub,2013-09-23 05:11:00,
2013-09-23 01:16:00,82.2,76.8,29.85,SW,236,0.0,5.0,84,0.00,,,0.00,meteohub,2013-09-23 05:16:00,
2013-09-23 01:21:00,82.2,76.8,29.85,SW,236,1.0,5.0,84,0.00,,,0.00,meteohub,2013-09-23 05:21:00,
2013-09-23 01:26:00,82.2,76.8,29.85,SW,225,0.0,5.0,84,0.00,,,0.00,meteohub,2013-09-23 05:26:00,
2013-09-23 01:31:00,82.2,76.8,29.85,South,190,0.0,5.0,84,0.00,,,0.00,meteohub,2013-09-23 05:31:00,
2013-09-23 01:36:00,82.2,76.8,29.85,SSE,165,1.0,5.0,84,0.00,,,0.00,meteohub,2013-09-23 05:36:00,
2013-09-23 01:41:00,82.2,76.8,29.85,SSE,163,0.0,4.0,84,0.00,,,0.00,meteohub,2013-09-23 05:41:00,
2013-09-23 01:46:00,82.2,76.8,29.85,SSE,163,1.0,4.0,84,0.00,,,0.00,meteohub,2013-09-23 05:46:00,
2013-09-23 01:51:00,82.0,76.3,29.85,SSE,163,1.0,4.0,83,0.00,,,0.00,meteohub,2013-09-23 05:51:00,
2013-09-23 01:56:00,82.0,76.3,29.84,SSE,163,2.0,4.0,83,0.00,,,0.00,meteohub,2013-09-23 05:56:00,
2013-09-23 02:01:00,82.0,76.3,29.85,SSE,153,1.0,4.0,83,0.00,,,0.00,meteohub,2013-09-23 06:01:00,
2013-09-23 02:06:00,82.0,76.3,29.84,SE,134,1.0,6.0,83,0.00,,,0.00,meteohub,2013-09-23 06:06:00,
2013-09-23 02:12:00,82.2,76.5,29.84,SE,133,3.0,6.0,83,0.00,,,0.00,meteohub,2013-09-23 06:12:00,
2013-09-23 02:17:00,82.0,76.3,29.84,SE,130,4.0,5.0,83,0.00,,,0.00,meteohub,2013-09-23 06:17:00,
2013-09-23 02:22:00,82.0,76.3,29.84,SE,128,4.0,6.0,83,0.00,,,0.00,meteohub,2013-09-23 06:22:00,
2013-09-23 02:27:00,82.2,76.5,29.84,SE,128,1.0,6.0,83,0.00,,,0.00,meteohub,2013-09-23 06:27:00,
2013-09-23 02:32:00,82.2,76.8,29.84,SE,127,3.0,6.0,84,0.00,,,0.00,meteohub,2013-09-23 06:32:00,
2013-09-23 02:37:00,82.2,76.5,29.84,ESE,109,2.0,7.0,83,0.00,,,0.00,meteohub,2013-09-23 06:37:00,
2013-09-23 02:42:00,82.2,76.8,29.85,ESE,109,5.0,8.0,84,0.00,,,0.00,meteohub,2013-09-23 06:42:00,
2013-09-23 02:47:00,82.2,76.8,29.85,ESE,111,2.0,8.0,84,0.00,,,0.00,meteohub,2013-09-23 06:47:00,
2013-09-23 02:52:00,82.2,77.2,29.84,ESE,104,7.0,8.0,85,0.00,,,0.00,meteohub,2013-09-23 06:52:00,
2013-09-23 02:57:00,82.0,77.0,29.84,ESE,107,5.0,9.0,85,0.00,,,0.00,meteohub,2013-09-23 06:57:00,
2013-09-23 03:02:00,81.9,77.2,29.84,ESE,105,9.0,9.0,86,0.00,,,0.00,meteohub,2013-09-23 07:02:00,
2013-09-23 03:07:00,81.7,77.0,29.84,East,92,9.0,12.0,86,0.00,,,0.00,meteohub,2013-09-23 07:07:00,
2013-09-23 03:12:00,81.7,77.0,29.84,East,90,7.0,12.0,86,0.00,,,0.00,meteohub,2013-09-23 07:12:00,
2013-09-23 03:17:00,81.7,77.4,29.84,ESE,103,5.0,14.0,87,0.00,,,0.00,meteohub,2013-09-23 07:17:00,
2013-09-23 03:22:00,81.7,77.4,29.83,ESE,106,7.0,14.0,87,0.00,,,0.00,meteohub,2013-09-23 07:22:00,
2013-09-23 03:27:00,81.5,77.2,29.83,East,98,8.0,14.0,87,0.00,,,0.00,meteohub,2013-09-23 07:27:00,
2013-09-23 03:32:00,81.3,77.0,29.83,East,98,9.0,12.0,87,0.00,,,0.00,meteohub,2013-09-23 07:32:00,
2013-09-23 03:37:00,81.3,77.0,29.83,East,100,8.0,13.0,87,0.00,,,0.00,meteohub,2013-09-23 07:37:00,
2013-09-23 03:42:00,81.3,77.0,29.83,East,94,2.0,13.0,87,0.00,,,0.00,meteohub,2013-09-23 07:42:00,
2013-09-23 03:47:00,81.3,77.0,29.83,ESE,102,9.0,13.0,87,0.00,,,0.00,meteohub,2013-09-23 07:47:00,
2013-09-23 03:52:00,81.3,77.0,29.84,ESE,107,3.0,11.0,87,0.00,,,0.00,meteohub,2013-09-23 07:52:00,
2013-09-23 03:57:00,81.3,77.0,29.84,SE,124,4.0,11.0,87,0.00,,,0.00,meteohub,2013-09-23 07:57:00,
2013-09-23 04:02:00,81.1,76.8,29.83,ESE,111,9.0,11.0,87,0.00,,,0.00,meteohub,2013-09-23 08:02:00,
2013-09-23 04:07:00,81.1,76.8,29.84,ESE,113,9.0,10.0,87,0.00,,,0.00,meteohub,2013-09-23 08:07:00,
2013-09-23 04:12:00,81.0,76.6,29.84,ESE,105,1.0,10.0,87,0.00,,,0.00,meteohub,2013-09-23 08:12:00,
2013-09-23 04:17:00,81.0,76.6,29.85,East,99,6.0,10.0,87,0.00,,,0.00,meteohub,2013-09-23 08:17:00,
2013-09-23 04:22:00,81.0,76.6,29.85,SE,126,3.0,10.0,87,0.00,,,0.00,meteohub,2013-09-23 08:22:00,
2013-09-23 04:27:00,81.0,76.6,29.85,SE,128,5.0,10.0,87,0.00,,,0.00,meteohub,2013-09-23 08:27:00,
2013-09-23 04:32:00,80.8,76.5,29.86,SE,142,3.0,10.0,87,0.00,,,0.00,meteohub,2013-09-23 08:32:00,
2013-09-23 04:37:00,80.8,76.5,29.86,ESE,105,3.0,9.0,87,0.00,,,0.00,meteohub,2013-09-23 08:37:00,
2013-09-23 04:42:00,80.8,76.5,29.86,SE,128,1.0,9.0,87,0.00,,,0.00,meteohub,2013-09-23 08:42:00,
2013-09-23 04:47:00,80.8,76.5,29.86,ESE,123,7.0,9.0,87,0.00,,,0.00,meteohub,2013-09-23 08:47:00,
2013-09-23 04:52:00,80.6,76.3,29.86,East,100,6.0,9.0,87,0.00,,,0.00,meteohub,2013-09-23 08:52:00,
2013-09-23 04:57:00,80.6,76.3,29.86,ESE,108,5.0,9.0,87,0.00,,,0.00,meteohub,2013-09-23 08:57:00,
2013-09-23 05:03:00,80.6,76.3,29.86,East,92,8.0,9.0,87,0.00,,,0.00,meteohub,2013-09-23 09:03:00,
2013-09-23 05:08:00,80.6,76.6,29.86,East,97,6.0,11.0,88,0.00,,,0.00,meteohub,2013-09-23 09:08:00,
2013-09-23 05:13:00,80.4,76.1,29.86,East,92,8.0,11.0,87,0.00,,,0.00,meteohub,2013-09-23 09:13:00,
2013-09-23 05:18:00,80.4,76.5,29.86,East,95,3.0,10.0,88,0.00,,,0.00,meteohub,2013-09-23 09:18:00,
2013-09-23 05:23:00,80.4,76.5,29.86,East,98,7.0,10.0,88,0.00,,,0.00,meteohub,2013-09-23 09:23:00,
2013-09-23 05:29:00,80.4,76.5,29.86,East,93,7.0,10.0,88,0.00,,,0.00,meteohub,2013-09-23 09:29:00,
2013-09-23 05:34:00,80.2,76.3,29.86,East,88,5.0,10.0,88,0.00,,,0.00,meteohub,2013-09-23 09:34:00,
2013-09-23 05:39:00,80.2,76.1,29.86,East,92,10.0,11.0,87,0.00,,,0.00,meteohub,2013-09-23 09:39:00,
2013-09-23 05:44:00,80.4,76.1,29.86,East,90,8.0,11.0,87,0.00,,,0.00,meteohub,2013-09-23 09:44:00,
2013-09-23 05:50:00,80.6,76.3,29.85,East,95,9.0,12.0,87,0.00,,,0.00,meteohub,2013-09-23 09:50:00,
2013-09-23 05:55:00,80.8,76.5,29.86,East,97,7.0,14.0,87,0.00,,,0.00,meteohub,2013-09-23 09:55:00,
2013-09-23 06:00:00,80.8,76.8,29.86,East,92,8.0,14.0,88,0.00,,,0.00,meteohub,2013-09-23 10:00:00,
2013-09-23 06:06:00,80.8,76.8,29.86,East,85,7.0,14.0,88,0.00,,,0.00,meteohub,2013-09-23 10:06:00,
2013-09-23 06:11:00,80.4,76.5,29.86,East,80,9.0,15.0,88,0.00,,,0.00,meteohub,2013-09-23 10:11:00,
2013-09-23 06:16:00,80.4,76.5,29.86,ENE,71,8.0,16.0,88,0.00,,,0.00,meteohub,2013-09-23 10:16:00,
2013-09-23 06:21:00,80.2,76.3,29.86,East,85,9.0,16.0,88,0.00,,,0.00,meteohub,2013-09-23 10:21:00,
2013-09-23 06:26:00,80.1,76.1,29.86,East,90,11.0,16.0,88,0.00,,,0.00,meteohub,2013-09-23 10:26:00,
2013-09-23 06:31:00,80.1,76.1,29.86,East,92,10.0,15.0,88,0.00,,,0.00,meteohub,2013-09-23 10:31:00,
2013-09-23 06:36:00,80.1,76.1,29.86,ENE,69,3.0,16.0,88,0.00,,,0.00,meteohub,2013-09-23 10:36:00,
2013-09-23 06:42:00,79.9,75.9,29.87,ESE,105,9.0,16.0,88,0.00,,,0.00,meteohub,2013-09-23 10:42:00,
2013-09-23 06:47:00,80.1,76.1,29.87,ENE,71,5.0,16.0,88,0.00,,,0.00,meteohub,2013-09-23 10:47:00,
2013-09-23 06:52:00,80.1,76.1,29.87,ESE,109,9.0,14.0,88,0.00,,,0.00,meteohub,2013-09-23 10:52:00,
2013-09-23 06:57:00,80.1,76.1,29.87,East,91,13.0,14.0,88,0.00,,,0.00,meteohub,2013-09-23 10:57:00,
2013-09-23 07:02:00,80.1,75.9,29.87,ESE,115,11.0,14.0,87,0.00,,,0.00,meteohub,2013-09-23 11:02:00,
2013-09-23 07:07:00,80.1,75.9,29.88,ENE,75,8.0,15.0,87,0.00,,,0.00,meteohub,2013-09-23 11:07:00,
2013-09-23 07:12:00,80.1,76.1,29.88,ESE,109,9.0,15.0,88,0.00,,,0.00,meteohub,2013-09-23 11:12:00,
2013-09-23 07:17:00,80.2,76.3,29.88,East,95,8.0,15.0,88,0.00,,,0.00,meteohub,2013-09-23 11:17:00,
2013-09-23 07:22:00,80.2,76.3,29.88,East,91,7.0,15.0,88,0.00,,,0.00,meteohub,2013-09-23 11:22:00,
2013-09-23 07:27:00,80.4,76.5,29.87,East,98,7.0,15.0,88,0.00,,,0.00,meteohub,2013-09-23 11:27:00,
2013-09-23 07:32:00,80.2,76.3,29.87,ENE,76,7.0,13.0,88,0.00,,,0.00,meteohub,2013-09-23 11:32:00,
2013-09-23 07:37:00,80.1,76.1,29.87,East,85,7.0,13.0,88,0.00,,,0.00,meteohub,2013-09-23 11:37:00,
2013-09-23 07:42:00,80.1,76.5,29.87,ENE,74,5.0,13.0,89,0.00,,,0.00,meteohub,2013-09-23 11:42:00,
2013-09-23 07:47:00,80.1,76.5,29.87,East,85,1.0,15.0,89,0.00,,,0.00,meteohub,2013-09-23 11:47:00,
2013-09-23 07:52:00,80.1,76.5,29.88,ENE,65,4.0,15.0,89,0.00,,,0.00,meteohub,2013-09-23 11:52:00,
2013-09-23 07:57:00,80.1,76.5,29.88,East,90,9.0,14.0,89,0.00,,,0.00,meteohub,2013-09-23 11:57:00,
2013-09-23 08:02:00,80.1,76.5,29.88,East,81,7.0,14.0,89,0.00,,,0.00,meteohub,2013-09-23 12:02:00,
2013-09-23 08:07:00,80.1,76.5,29.88,ENE,76,8.0,14.0,89,0.00,,,0.00,meteohub,2013-09-23 12:07:00,
2013-09-23 08:12:00,80.2,76.6,29.88,ESE,107,9.0,13.0,89,0.00,,,0.00,meteohub,2013-09-23 12:12:00,
2013-09-23 08:17:00,80.2,76.6,29.88,East,93,11.0,13.0,89,0.00,,,0.00,meteohub,2013-09-23 12:17:00,
2013-09-23 08:22:00,80.2,76.3,29.88,East,90,8.0,13.0,88,0.00,,,0.00,meteohub,2013-09-23 12:22:00,
2013-09-23 08:27:00,80.2,76.6,29.89,East,94,8.0,12.0,89,0.00,,,0.00,meteohub,2013-09-23 12:27:00,
2013-09-23 08:32:00,80.2,76.6,29.89,ENE,78,7.0,11.0,89,0.00,,,0.00,meteohub,2013-09-23 12:32:00,
2013-09-23 08:37:00,80.4,76.8,29.89,East,94,11.0,11.0,89,0.00,,,0.00,meteohub,2013-09-23 12:37:00,
2013-09-23 08:42:00,80.8,77.2,29.89,ESE,107,8.0,13.0,89,0.00,,,0.00,meteohub,2013-09-23 12:42:00,
2013-09-23 08:47:00,81.0,77.0,29.89,ENE,69,7.0,13.0,88,0.00,,,0.00,meteohub,2013-09-23 12:47:00,
2013-09-23 08:52:00,81.1,77.2,29.89,East,89,8.0,13.0,88,0.00,,,0.00,meteohub,2013-09-23 12:52:00,
2013-09-23 08:57:00,81.1,76.8,29.90,ENE,74,7.0,11.0,87,0.00,,,0.00,meteohub,2013-09-23 12:57:00,
2013-09-23 09:02:00,81.3,77.0,29.91,NE,46,5.0,13.0,87,0.00,,,0.00,meteohub,2013-09-23 13:02:00,
2013-09-23 09:07:00,81.3,77.0,29.91,ENE,65,8.0,13.0,87,0.00,,,0.00,meteohub,2013-09-23 13:07:00,
2013-09-23 09:12:00,81.3,77.0,29.91,ESE,103,8.0,14.0,87,0.00,,,0.00,meteohub,2013-09-23 13:12:00,
2013-09-23 09:17:00,81.1,76.8,29.90,East,82,5.0,14.0,87,0.00,,,0.00,meteohub,2013-09-23 13:17:00,
2013-09-23 09:22:00,81.3,77.0,29.91,ENE,62,12.0,14.0,87,0.00,,,0.00,meteohub,2013-09-23 13:22:00,
2013-09-23 09:27:00,81.3,76.6,29.90,East,97,9.0,15.0,86,0.00,,,0.00,meteohub,2013-09-23 13:27:00,
2013-09-23 09:32:00,81.7,77.4,29.90,East,84,7.0,15.0,87,0.00,,,0.00,meteohub,2013-09-23 13:32:00,
2013-09-23 09:37:00,81.7,77.0,29.90,East,92,7.0,15.0,86,0.00,,,0.00,meteohub,2013-09-23 13:37:00,
2013-09-23 09:42:00,81.9,77.2,29.91,ESE,107,10.0,14.0,86,0.00,,,0.00,meteohub,2013-09-23 13:42:00,
2013-09-23 09:47:00,82.0,77.4,29.91,ESE,121,8.0,15.0,86,0.00,,,0.00,meteohub,2013-09-23 13:47:00,
2013-09-23 09:52:00,82.2,77.2,29.91,East,92,11.0,15.0,85,0.00,,,0.00,meteohub,2013-09-23 13:52:00,
2013-09-23 09:57:00,82.0,77.0,29.91,ENE,67,10.0,15.0,85,0.00,,,0.00,meteohub,2013-09-23 13:57:00,
2013-09-23 10:02:00,82.0,77.4,29.91,East,97,10.0,16.0,86,0.00,,,0.00,meteohub,2013-09-23 14:02:00,
2013-09-23 10:07:00,81.9,77.2,29.91,SE,132,6.0,16.0,86,0.00,,,0.00,meteohub,2013-09-23 14:07:00,
2013-09-23 10:12:00,81.9,76.8,29.91,ENE,78,10.0,16.0,85,0.00,,,0.00,meteohub,2013-09-23 14:12:00,
2013-09-23 10:17:00,81.1,76.5,29.91,East,88,2.0,15.0,86,0.00,,,0.00,meteohub,2013-09-23 14:17:00,
2013-09-23 10:22:00,80.8,76.3,29.91,East,81,6.0,15.0,86,0.00,,,0.00,meteohub,2013-09-23 14:22:00,
2013-09-23 10:27:00,80.2,75.7,29.92,SSE,149,5.0,15.0,86,0.00,,,0.00,meteohub,2013-09-23 14:27:00,
2013-09-23 10:32:00,80.4,76.1,29.91,East,92,5.0,13.0,87,0.00,,,0.00,meteohub,2013-09-23 14:32:00,
2013-09-23 10:37:00,80.4,76.1,29.91,East,92,6.0,13.0,87,0.00,,,0.00,meteohub,2013-09-23 14:37:00,
2013-09-23 10:42:00,80.8,76.8,29.91,ESE,107,5.0,11.0,88,0.00,,,0.00,meteohub,2013-09-23 14:42:00,
2013-09-23 10:47:00,80.8,76.8,29.91,ESE,107,0.0,11.0,88,0.00,,,0.00,meteohub,2013-09-23 14:47:00,
2013-09-23 10:52:00,81.0,77.0,29.91,ESE,118,1.0,10.0,88,0.00,,,0.00,meteohub,2013-09-23 14:52:00,
2013-09-23 10:57:00,81.0,77.0,29.91,ESE,118,4.0,9.0,88,0.00,,,0.00,meteohub,2013-09-23 14:57:00,
2013-09-23 11:02:00,80.6,76.6,29.91,ESE,113,3.0,7.0,88,0.00,,,0.00,meteohub,2013-09-23 15:02:00,
2013-09-23 11:07:00,80.6,76.6,29.91,East,91,2.0,7.0,88,0.00,,,0.00,meteohub,2013-09-23 15:07:00,
2013-09-23 11:12:00,80.6,77.0,29.91,East,82,7.0,10.0,89,0.00,,,0.00,meteohub,2013-09-23 15:12:00,
2013-09-23 11:17:00,80.6,77.0,29.91,ESE,105,8.0,13.0,89,0.00,,,0.00,meteohub,2013-09-23 15:17:00,
2013-09-23 11:22:00,80.6,77.0,29.91,East,101,7.0,13.0,89,0.00,,,0.00,meteohub,2013-09-23 15:22:00,
2013-09-23 11:27:00,80.4,76.8,29.92,East,92,7.0,13.0,89,0.00,,,0.00,meteohub,2013-09-23 15:27:00,
2013-09-23 11:32:00,80.1,76.1,29.92,ENE,70,5.0,13.0,88,0.00,,,0.00,meteohub,2013-09-23 15:32:00,
2013-09-23 11:37:00,80.1,76.5,29.92,East,85,8.0,14.0,89,0.00,,,0.00,meteohub,2013-09-23 15:37:00,
2013-09-23 11:42:00,80.1,76.5,29.92,East,90,10.0,14.0,89,0.00,,,0.00,meteohub,2013-09-23 15:42:00,
2013-09-23 11:47:00,79.0,74.8,29.94,SW,214,12.0,17.0,87,0.00,,,0.00,meteohub,2013-09-23 15:47:00,
2013-09-23 11:52:00,77.4,73.9,29.94,SW,215,6.0,21.0,89,0.00,,,0.00,meteohub,2013-09-23 15:52:00,
2013-09-23 11:57:00,76.6,73.4,29.94,South,175,6.0,21.0,90,0.00,,,0.00,meteohub,2013-09-23 15:57:00,
2013-09-23 12:02:00,76.5,73.6,29.94,South,190,2.0,19.0,91,0.00,,,0.00,meteohub,2013-09-23 16:02:00,
2013-09-23 12:07:00,76.5,73.6,29.94,South,188,2.0,14.0,91,0.00,,,0.00,meteohub,2013-09-23 16:07:00,
2013-09-23 12:12:00,76.5,73.6,29.94,South,188,0.0,8.0,91,0.00,,,0.00,meteohub,2013-09-23 16:12:00,
2013-09-23 12:17:00,76.5,73.6,29.94,SSE,165,4.0,6.0,91,0.00,,,0.00,meteohub,2013-09-23 16:17:00,
2013-09-23 12:22:00,76.6,73.8,29.94,SE,140,1.0,5.0,91,0.00,,,0.00,meteohub,2013-09-23 16:22:00,
2013-09-23 12:27:00,76.8,74.3,29.94,SSE,157,3.0,6.0,92,0.00,,,0.00,meteohub,2013-09-23 16:27:00,
2013-09-23 12:32:00,76.8,73.9,29.94,SE,130,3.0,7.0,91,0.00,,,0.00,meteohub,2013-09-23 16:32:00,
2013-09-23 12:37:00,77.0,74.5,29.94,ESE,123,9.0,9.0,92,0.00,,,0.00,meteohub,2013-09-23 16:37:00,
2013-09-23 12:42:00,76.8,74.3,29.94,South,174,6.0,9.0,92,0.00,,,0.00,meteohub,2013-09-23 16:42:00,
2013-09-23 12:47:00,76.8,74.3,29.93,SE,131,1.0,9.0,92,0.00,,,0.00,meteohub,2013-09-23 16:47:00,
2013-09-23 12:52:00,76.8,74.3,29.93,East,96,0.0,9.0,92,0.00,,,0.00,meteohub,2013-09-23 16:52:00,
2013-09-23 12:57:00,76.8,74.3,29.93,East,101,3.0,9.0,92,0.00,,,0.00,meteohub,2013-09-23 16:57:00,
2013-09-23 13:03:00,76.8,74.3,29.93,ESE,104,7.0,7.0,92,0.00,,,0.00,meteohub,2013-09-23 17:03:00,
2013-09-23 13:08:00,76.6,74.1,29.93,East,101,1.0,8.0,92,0.00,,,0.00,meteohub,2013-09-23 17:08:00,
2013-09-23 13:13:00,76.6,74.1,29.93,ESE,107,3.0,9.0,92,0.00,,,0.00,meteohub,2013-09-23 17:13:00,
2013-09-23 13:18:00,76.8,74.3,29.93,ESE,103,1.0,9.0,92,0.00,,,0.00,meteohub,2013-09-23 17:18:00,
2013-09-23 13:23:00,77.0,74.5,29.93,ESE,103,2.0,9.0,92,0.00,,,0.00,meteohub,2013-09-23 17:23:00,
2013-09-23 13:28:00,77.2,74.7,29.92,ESE,104,1.0,8.0,92,0.00,,,0.00,meteohub,2013-09-23 17:28:00,
2013-09-23 13:33:00,77.5,75.0,29.92,ESE,103,2.0,8.0,92,0.00,,,0.00,meteohub,2013-09-23 17:33:00,
2013-09-23 13:38:00,77.5,75.0,29.92,East,101,2.0,8.0,92,0.00,,,0.00,meteohub,2013-09-23 17:38:00,
2013-09-23 13:44:00,77.5,75.0,29.92,East,92,3.0,8.0,92,0.00,,,0.00,meteohub,2013-09-23 17:44:00,
2013-09-23 13:49:00,77.7,75.2,29.92,East,93,3.0,9.0,92,0.00,,,0.00,meteohub,2013-09-23 17:49:00,
2013-09-23 13:54:00,77.7,75.2,29.92,East,92,3.0,9.0,92,0.00,,,0.00,meteohub,2013-09-23 17:54:00,
2013-09-23 13:59:00,78.1,75.6,29.91,East,89,6.0,9.0,92,0.00,,,0.00,meteohub,2013-09-23 17:59:00,
2013-09-23 14:04:00,78.3,75.7,29.91,East,92,6.0,9.0,92,0.00,,,0.00,meteohub,2013-09-23 18:04:00,
2013-09-23 14:10:00,79.0,76.8,29.90,East,90,3.0,9.0,93,0.00,,,0.00,meteohub,2013-09-23 18:10:00,
2013-09-23 14:15:00,79.5,77.0,29.90,East,86,7.0,9.0,92,0.00,,,0.00,meteohub,2013-09-23 18:15:00,
2013-09-23 14:20:00,79.5,77.0,29.90,ENE,74,4.0,9.0,92,0.00,,,0.00,meteohub,2013-09-23 18:20:00,
2013-09-23 14:25:00,79.5,76.6,29.90,ENE,76,3.0,11.0,91,0.00,,,0.00,meteohub,2013-09-23 18:25:00,
2013-09-23 14:30:00,79.7,76.5,29.90,East,90,9.0,13.0,90,0.00,,,0.00,meteohub,2013-09-23 18:30:00,
2013-09-23 14:35:00,79.7,76.1,29.90,East,89,8.0,13.0,89,0.00,,,0.00,meteohub,2013-09-23 18:35:00,
2013-09-23 14:41:00,80.1,76.5,29.90,East,91,8.0,13.0,89,0.00,,,0.00,meteohub,2013-09-23 18:41:00,
2013-09-23 14:46:00,80.1,76.1,29.90,East,86,7.0,13.0,88,0.00,,,0.00,meteohub,2013-09-23 18:46:00,
2013-09-23 14:51:00,80.1,76.1,29.90,East,80,5.0,13.0,88,0.00,,,0.00,meteohub,2013-09-23 18:51:00,
2013-09-23 14:56:00,79.7,75.6,29.90,East,82,2.0,11.0,87,0.00,,,0.00,meteohub,2013-09-23 18:56:00,
2013-09-23 15:02:00,79.5,75.4,29.90,ENE,74,3.0,10.0,87,0.00,,,0.00,meteohub,2013-09-23 19:02:00,
2013-09-23 15:07:00,79.5,75.6,29.90,East,85,6.0,9.0,88,0.00,,,0.00,meteohub,2013-09-23 19:07:00,
2013-09-23 15:12:00,79.5,75.6,29.90,East,88,5.0,10.0,88,0.00,,,0.00,meteohub,2013-09-23 19:12:00,
2013-09-23 15:17:00,79.7,75.7,29.90,East,86,3.0,11.0,88,0.00,,,0.00,meteohub,2013-09-23 19:17:00,
2013-09-23 15:22:00,79.9,75.9,29.90,East,88,7.0,11.0,88,0.00,,,0.00,meteohub,2013-09-23 19:22:00,
2013-09-23 15:27:00,79.7,75.7,29.90,East,83,8.0,11.0,88,0.00,,,0.00,meteohub,2013-09-23 19:27:00,
2013-09-23 15:32:00,79.5,75.6,29.90,East,81,5.0,11.0,88,0.00,,,0.00,meteohub,2013-09-23 19:32:00,
2013-09-23 15:37:00,79.5,75.6,29.90,East,83,7.0,11.0,88,0.00,,,0.00,meteohub,2013-09-23 19:37:00,
2013-09-23 15:42:00,79.3,75.6,29.90,East,88,9.0,11.0,88,0.00,,,0.00,meteohub,2013-09-23 19:42:00,
2013-09-23 15:47:00,79.2,75.4,29.90,East,90,9.0,13.0,88,0.00,,,0.00,meteohub,2013-09-23 19:47:00,
2013-09-23 15:52:00,79.2,75.4,29.90,East,80,8.0,13.0,88,0.00,,,0.00,meteohub,2013-09-23 19:52:00,
2013-09-23 15:57:00,79.2,75.4,29.90,East,86,8.0,12.0,88,0.00,,,0.00,meteohub,2013-09-23 19:57:00,
2013-09-23 16:02:00,79.3,75.6,29.90,East,85,9.0,11.0,88,0.00,,,0.00,meteohub,2013-09-23 20:02:00,
2013-09-23 16:07:00,79.5,75.6,29.90,East,100,7.0,11.0,88,0.00,,,0.00,meteohub,2013-09-23 20:07:00,
2013-09-23 16:12:00,79.3,75.6,29.90,East,87,7.0,11.0,88,0.00,,,0.00,meteohub,2013-09-23 20:12:00,
2013-09-23 16:17:00,79.3,75.6,29.91,East,92,10.0,11.0,88,0.00,,,0.00,meteohub,2013-09-23 20:17:00,
2013-09-23 16:22:00,79.3,75.7,29.91,ESE,105,9.0,11.0,89,0.00,,,0.00,meteohub,2013-09-23 20:22:00,
2013-09-23 16:27:00,79.3,75.7,29.91,ENE,74,9.0,13.0,89,0.00,,,0.00,meteohub,2013-09-23 20:27:00,
2013-09-23 16:32:00,79.3,75.7,29.91,East,88,7.0,13.0,89,0.00,,,0.00,meteohub,2013-09-23 20:32:00,
2013-09-23 16:37:00,79.3,75.7,29.91,East,94,10.0,13.0,89,0.00,,,0.00,meteohub,2013-09-23 20:37:00,
2013-09-23 16:42:00,79.3,75.7,29.91,East,82,8.0,14.0,89,0.00,,,0.00,meteohub,2013-09-23 20:42:00,
2013-09-23 16:47:00,79.3,75.7,29.91,East,85,8.0,14.0,89,0.00,,,0.00,meteohub,2013-09-23 20:47:00,
2013-09-23 16:52:00,79.5,75.9,29.91,East,89,9.0,14.0,89,0.00,,,0.00,meteohub,2013-09-23 20:52:00,
2013-09-23 16:57:00,79.5,75.9,29.91,ESE,105,8.0,13.0,89,0.00,,,0.00,meteohub,2013-09-23 20:57:00,
2013-09-23 17:02:00,79.7,76.1,29.90,East,96,11.0,11.0,89,0.00,,,0.00,meteohub,2013-09-23 21:02:00,
2013-09-23 17:07:00,79.5,75.9,29.90,East,101,7.0,11.0,89,0.00,,,0.00,meteohub,2013-09-23 21:07:00,
2013-09-23 17:12:00,79.5,75.6,29.90,East,96,3.0,11.0,88,0.00,,,0.00,meteohub,2013-09-23 21:12:00,
2013-09-23 17:17:00,79.5,75.9,29.91,ESE,111,3.0,11.0,89,0.00,,,0.00,meteohub,2013-09-23 21:17:00,
2013-09-23 17:22:00,79.3,75.6,29.91,SSE,157,5.0,9.0,88,0.00,,,0.00,meteohub,2013-09-23 21:22:00,
2013-09-23 17:27:00,79.5,75.6,29.91,South,172,6.0,9.0,88,0.00,,,0.00,meteohub,2013-09-23 21:27:00,
2013-09-23 17:32:00,79.5,75.6,29.91,SE,140,1.0,9.0,88,0.00,,,0.00,meteohub,2013-09-23 21:32:00,
2013-09-23 17:37:00,79.5,75.6,29.91,SE,140,1.0,8.0,88,0.00,,,0.00,meteohub,2013-09-23 21:37:00,
2013-09-23 17:42:00,79.7,75.7,29.91,SE,138,1.0,7.0,88,0.00,,,0.00,meteohub,2013-09-23 21:42:00,
2013-09-23 17:47:00,79.9,76.3,29.91,ESE,120,5.0,5.0,89,0.00,,,0.00,meteohub,2013-09-23 21:47:00,
2013-09-23 17:52:00,79.9,76.3,29.91,ESE,120,3.0,6.0,89,0.00,,,0.00,meteohub,2013-09-23 21:52:00,
2013-09-23 17:57:00,79.9,76.3,29.91,ESE,103,2.0,9.0,89,0.00,,,0.00,meteohub,2013-09-23 21:57:00,
2013-09-23 18:02:00,80.1,76.5,29.92,ESE,105,7.0,10.0,89,0.00,,,0.00,meteohub,2013-09-23 22:02:00,
2013-09-23 18:07:00,79.9,76.3,29.92,ESE,105,4.0,11.0,89,0.00,,,0.00,meteohub,2013-09-23 22:07:00,
2013-09-23 18:12:00,79.7,76.1,29.92,East,98,6.0,11.0,89,0.00,,,0.00,meteohub,2013-09-23 22:12:00,
2013-09-23 18:17:00,79.5,75.9,29.92,ESE,105,10.0,13.0,89,0.00,,,0.00,meteohub,2013-09-23 22:17:00,
2013-09-23 18:22:00,79.3,75.7,29.92,East,100,8.0,13.0,89,0.00,,,0.00,meteohub,2013-09-23 22:22:00,
2013-09-23 18:27:00,79.3,75.7,29.92,ESE,103,13.0,13.0,89,0.00,,,0.00,meteohub,2013-09-23 22:27:00,
2013-09-23 18:32:00,79.2,75.9,29.92,ENE,76,13.0,16.0,90,0.00,,,0.00,meteohub,2013-09-23 22:32:00,
2013-09-23 18:37:00,79.0,75.7,29.92,ESE,105,4.0,16.0,90,0.00,,,0.00,meteohub,2013-09-23 22:37:00,
2013-09-23 18:42:00,79.2,75.9,29.92,East,82,10.0,17.0,90,0.00,,,0.00,meteohub,2013-09-23 22:42:00,
2013-09-23 18:47:00,79.0,75.7,29.91,SE,133,12.0,17.0,90,0.00,,,0.00,meteohub,2013-09-23 22:47:00,
2013-09-23 18:52:00,78.8,75.9,29.91,SSE,151,4.0,17.0,91,0.00,,,0.00,meteohub,2013-09-23 22:52:00,
2013-09-23 18:57:00,78.6,75.7,29.91,ESE,117,10.0,13.0,91,0.00,,,0.00,meteohub,2013-09-23 22:57:00,
2013-09-23 19:02:00,78.4,75.6,29.91,SE,144,2.0,13.0,91,0.00,,,0.00,meteohub,2013-09-23 23:02:00,
2013-09-23 19:07:00,78.1,75.2,29.92,SE,130,7.0,12.0,91,0.00,,,0.00,meteohub,2013-09-23 23:07:00,
2013-09-23 19:12:00,78.1,75.2,29.92,ESE,119,3.0,14.0,91,0.00,,,0.00,meteohub,2013-09-23 23:12:00,
2013-09-23 19:17:00,78.3,75.4,29.92,ESE,117,10.0,14.0,91,0.00,,,0.00,meteohub,2013-09-23 23:17:00,
2013-09-23 19:22:00,78.3,75.4,29.91,SE,129,12.0,16.0,91,0.00,,,0.00,meteohub,2013-09-23 23:22:00,
2013-09-23 19:27:00,78.3,75.4,29.91,East,99,9.0,16.0,91,0.00,,,0.00,meteohub,2013-09-23 23:27:00,
2013-09-23 19:32:00,78.1,75.2,29.92,ESE,105,14.0,17.0,91,0.00,,,0.00,meteohub,2013-09-23 23:32:00,
2013-09-23 19:37:00,78.3,75.4,29.92,ENE,70,10.0,17.0,91,0.00,,,0.00,meteohub,2013-09-23 23:37:00,
2013-09-23 19:42:00,78.4,75.6,29.92,ESE,103,8.0,17.0,91,0.00,,,0.00,meteohub,2013-09-23 23:42:00,
2013-09-23 19:47:00,78.4,75.6,29.92,ESE,120,5.0,17.0,91,0.00,,,0.00,meteohub,2013-09-23 23:47:00,
2013-09-23 19:52:00,78.6,75.7,29.92,ESE,113,11.0,14.0,91,0.00,,,0.00,meteohub,2013-09-23 23:52:00,
2013-09-23 19:57:00,78.6,75.7,29.92,East,100,3.0,13.0,91,0.00,,,0.00,meteohub,2013-09-23 23:57:00,
2013-09-23 20:02:00,78.6,75.4,29.91,East,85,3.0,14.0,90,0.00,,,0.00,meteohub,2013-09-24 00:02:00,
2013-09-23 20:07:00,78.6,75.4,29.91,ESE,115,12.0,15.0,90,0.00,,,0.00,meteohub,2013-09-24 00:07:00,
2013-09-23 20:12:00,78.6,75.4,29.91,East,98,7.0,15.0,90,0.00,,,0.00,meteohub,2013-09-24 00:12:00,
2013-09-23 20:17:00,78.6,75.4,29.91,East,99,6.0,15.0,90,0.00,,,0.00,meteohub,2013-09-24 00:17:00,
2013-09-23 20:22:00,78.6,75.4,29.91,ESE,117,8.0,15.0,90,0.00,,,0.00,meteohub,2013-09-24 00:22:00,
2013-09-23 20:27:00,78.6,75.4,29.92,North,0,3.0,15.0,90,0.00,,,0.00,meteohub,2013-09-24 00:27:00,
2013-09-23 20:32:00,78.6,75.4,29.92,East,96,5.0,15.0,90,0.00,,,0.00,meteohub,2013-09-24 00:32:00,
2013-09-23 20:37:00,78.6,75.4,29.92,SE,125,5.0,11.0,90,0.00,,,0.00,meteohub,2013-09-24 00:37:00,
2013-09-23 20:43:00,78.6,75.4,29.92,East,98,7.0,12.0,90,0.00,,,0.00,meteohub,2013-09-24 00:43:00,
2013-09-23 20:48:00,78.8,75.6,29.92,ESE,119,4.0,12.0,90,0.00,,,0.00,meteohub,2013-09-24 00:48:00,
2013-09-23 20:53:00,78.6,75.4,29.93,ESE,115,11.0,11.0,90,0.00,,,0.00,meteohub,2013-09-24 00:53:00,
2013-09-23 20:58:00,78.6,75.4,29.93,East,101,6.0,12.0,90,0.00,,,0.00,meteohub,2013-09-24 00:58:00,
2013-09-23 21:03:00,78.6,75.4,29.94,SE,144,5.0,13.0,90,0.00,,,0.00,meteohub,2013-09-24 01:03:00,
2013-09-23 21:08:00,78.6,75.4,29.94,ESE,115,7.0,13.0,90,0.00,,,0.00,meteohub,2013-09-24 01:08:00,
2013-09-23 21:13:00,78.8,75.6,29.94,SSE,168,5.0,13.0,90,0.00,,,0.00,meteohub,2013-09-24 01:13:00,
2013-09-23 21:19:00,79.0,75.7,29.94,ESE,108,5.0,11.0,90,0.00,,,0.00,meteohub,2013-09-24 01:19:00,
2013-09-23 21:24:00,78.8,75.6,29.94,SSE,151,7.0,11.0,90,0.00,,,0.00,meteohub,2013-09-24 01:24:00,
2013-09-23 21:29:00,78.6,75.4,29.94,ESE,114,11.0,11.0,90,0.00,,,0.00,meteohub,2013-09-24 01:29:00,
2013-09-23 21:34:00,78.6,75.4,29.93,East,96,9.0,15.0,90,0.00,,,0.00,meteohub,2013-09-24 01:34:00,
2013-09-23 21:39:00,78.4,75.2,29.93,East,98,8.0,15.0,90,0.00,,,0.00,meteohub,2013-09-24 01:39:00,
2013-09-23 21:44:00,78.4,75.2,29.93,East,82,11.0,15.0,90,0.00,,,0.00,meteohub,2013-09-24 01:44:00,
2013-09-23 21:49:00,78.3,75.0,29.94,ESE,107,2.0,16.0,90,0.00,,,0.00,meteohub,2013-09-24 01:49:00,
2013-09-23 21:54:00,78.4,75.2,29.94,South,184,6.0,16.0,90,0.00,,,0.00,meteohub,2013-09-24 01:54:00,
2013-09-23 21:59:00,78.4,75.2,29.94,SSE,150,3.0,16.0,90,0.00,,,0.00,meteohub,2013-09-24 01:59:00,
2013-09-23 22:05:00,78.4,75.2,29.94,ESE,103,5.0,13.0,90,0.00,,,0.00,meteohub,2013-09-24 02:05:00,
2013-09-23 22:10:00,78.4,75.2,29.94,East,96,10.0,15.0,90,0.00,,,0.00,meteohub,2013-09-24 02:10:00,
2013-09-23 22:15:00,78.4,75.2,29.94,ESE,111,9.0,15.0,90,0.00,,,0.00,meteohub,2013-09-24 02:15:00,
2013-09-23 22:20:00,78.4,75.2,29.94,ESE,107,9.0,15.0,90,0.00,,,0.00,meteohub,2013-09-24 02:20:00,
2013-09-23 22:25:00,78.4,75.2,29.94,SSE,149,8.0,14.0,90,0.00,,,0.00,meteohub,2013-09-24 02:25:00,
2013-09-23 22:30:00,78.4,75.2,29.94,ESE,121,7.0,14.0,90,0.00,,,0.00,meteohub,2013-09-24 02:30:00,
2013-09-23 22:35:00,78.4,75.2,29.94,SSE,163,8.0,15.0,90,0.00,,,0.00,meteohub,2013-09-24 02:35:00,
2013-09-23 22:41:00,78.4,75.2,29.94,SSE,153,4.0,15.0,90,0.00,,,0.00,meteohub,2013-09-24 02:41:00,
2013-09-23 22:46:00,78.6,75.4,29.95,SE,138,5.0,15.0,90,0.00,,,0.00,meteohub,2013-09-24 02:46:00,
2013-09-23 22:51:00,78.4,75.2,29.95,ESE,111,10.0,12.0,90,0.00,,,0.00,meteohub,2013-09-24 02:51:00,
2013-09-23 22:56:00,78.6,75.4,29.95,SE,145,8.0,12.0,90,0.00,,,0.00,meteohub,2013-09-24 02:56:00,
2013-09-23 23:01:00,78.6,75.4,29.96,South,182,9.0,13.0,90,0.00,,,0.00,meteohub,2013-09-24 03:01:00,
2013-09-23 23:06:00,78.6,75.4,29.95,South,180,8.0,13.0,90,0.00,,,0.00,meteohub,2013-09-24 03:06:00,
2013-09-23 23:11:00,78.6,75.0,29.96,South,172,5.0,13.0,89,0.00,,,0.00,meteohub,2013-09-24 03:11:00,
2013-09-23 23:16:00,78.6,75.0,29.96,South,191,8.0,12.0,89,0.00,,,0.00,meteohub,2013-09-24 03:16:00,
2013-09-23 23:21:00,78.4,74.7,29.96,SSE,167,6.0,12.0,88,0.00,,,0.00,meteohub,2013-09-24 03:21:00,
2013-09-23 23:26:00,78.6,75.0,29.96,South,188,9.0,12.0,89,0.00,,,0.00,meteohub,2013-09-24 03:26:00,
2013-09-23 23:31:00,78.6,75.0,29.95,South,169,6.0,12.0,89,0.00,,,0.00,meteohub,2013-09-24 03:31:00,
2013-09-23 23:36:00,78.6,75.0,29.94,SSE,163,7.0,12.0,89,0.00,,,0.00,meteohub,2013-09-24 03:36:00,
2013-09-23 23:42:00,79.0,75.4,29.94,SE,140,3.0,12.0,89,0.00,,,0.00,meteohub,2013-09-24 03:42:00,
2013-09-23 23:47:00,78.8,75.2,29.94,SE,138,1.0,9.0,89,0.00,,,0.00,meteohub,2013-09-24 03:47:00,
2013-09-23 23:52:00,78.6,75.0,29.94,SSE,155,7.0,10.0,89,0.00,,,0.00,meteohub,2013-09-24 03:52:00,
2013-09-23 23:57:00,78.8,75.2,29.94,East,94,7.0,11.0,89,0.00,,,0.00,meteohub,2013-09-24 03:57:00,